Time;durP1;ratioP1;P1;durP2;ratioP2;P2;SDS_P1;SDS_P2;PMS_P1;PMS_P2;Temp;Humidity;BMP_temperature;BMP_pressure;BME280_temperature;BME280_humidity;BME280_pressure;Samples;Min_cycle;Max_cycle;Signal;HPM_P1;HPM_P2
2024/01/02 00:01:28;;;;;;;33.15;22.73;;;;;;;-0.13;100.00;96082.81;5039193;28;20037;-72
2024/01/02 00:03:54;;;;;;;32.10;26.35;;;;;;;-0.09;100.00;96087.81;5047017;28;20021;-72
2024/01/02 00:06:19;;;;;;;25.45;19.67;;;;;;;-0.05;100.00;96080.72;5045562;28;20055;-72
2024/01/02 00:08:45;;;;;;;25.50;20.88;;;;;;;-0.03;100.00;96089.28;5049507;28;20103;-72
2024/01/02 00:11:10;;;;;;;21.92;16.25;;;;;;;-0.03;100.00;96094.44;5046958;28;20482;-72
2024/01/02 00:13:36;;;;;;;17.52;15.27;;;;;;;-0.04;100.00;96083.28;5044504;28;20027;-72
2024/01/02 00:16:02;;;;;;;18.92;15.25;;;;;;;-0.03;100.00;96087.53;5044350;28;20025;-72
2024/01/02 00:18:27;;;;;;;17.33;14.82;;;;;;;-0.08;100.00;96081.72;5050787;28;20033;-72
2024/01/02 00:20:53;;;;;;;17.15;14.77;;;;;;;-0.07;100.00;96078.22;5048237;28;20021;-72
2024/01/02 00:23:18;;;;;;;19.50;15.13;;;;;;;-0.05;100.00;96071.22;5046305;28;20853;-72
2024/01/02 00:25:43;;;;;;;16.60;13.85;;;;;;;-0.04;100.00;96066.88;5048066;28;20025;-72
2024/01/02 00:28:10;;;;;;;14.75;12.27;;;;;;;-0.04;100.00;96069.47;5044762;28;20472;-72
2024/01/02 00:30:35;;;;;;;13.85;12.25;;;;;;;-0.05;100.00;96081.59;5045039;28;20056;-72
2024/01/02 00:33:03;;;;;;;16.98;13.80;;;;;;;-0.08;100.00;96070.50;5049193;28;20477;-72
2024/01/02 00:35:29;;;;;;;17.17;13.70;;;;;;;-0.11;100.00;96063.75;5038392;28;20097;-72
2024/01/02 00:37:54;;;;;;;13.88;12.18;;;;;;;-0.11;100.00;96049.94;5047525;28;20029;-72
2024/01/02 00:40:20;;;;;;;13.93;12.32;;;;;;;-0.16;100.00;96042.38;5038054;28;20036;-72
2024/01/02 00:42:45;;;;;;;12.38;11.13;;;;;;;-0.15;100.00;96049.22;5041207;28;20036;-72
2024/01/02 00:45:11;;;;;;;16.48;11.27;;;;;;;-0.18;100.00;96049.38;5047447;28;20017;-72
2024/01/02 00:47:36;;;;;;;12.95;11.25;;;;;;;-0.19;100.00;96050.28;5047498;28;20049;-72
2024/01/02 00:50:03;;;;;;;12.57;10.18;;;;;;;-0.20;100.00;96046.00;5038308;28;20035;-72
2024/01/02 00:52:28;;;;;;;11.20;10.15;;;;;;;-0.15;100.00;96044.91;5041636;28;20053;-72
2024/01/02 00:54:54;;;;;;;10.50;8.68;;;;;;;-0.21;100.00;96041.75;5048147;28;20056;-72
2024/01/02 00:57:19;;;;;;;13.57;10.30;;;;;;;-0.22;100.00;96037.47;5042351;28;21012;-72
2024/01/02 00:59:45;;;;;;;12.45;9.00;;;;;;;-0.18;100.00;96033.84;5047797;28;20062;-72
2024/01/02 01:02:10;;;;;;;11.50;10.35;;;;;;;-0.15;100.00;96036.28;5044518;28;20024;-72
2024/01/02 01:04:35;;;;;;;12.40;10.48;;;;;;;-0.14;100.00;96037.97;5047509;28;20028;-73
2024/01/02 01:07:01;;;;;;;13.63;10.82;;;;;;;-0.17;100.00;96036.38;5050159;28;20033;-72
2024/01/02 01:09:26;;;;;;;14.65;10.27;;;;;;;-0.19;100.00;96038.19;5047328;28;20037;-72
2024/01/02 01:11:51;;;;;;;14.45;10.35;;;;;;;-0.20;100.00;96041.69;5041214;28;20504;-72
2024/01/02 01:14:17;;;;;;;13.75;10.05;;;;;;;-0.19;100.00;96045.09;5043186;28;20025;-72
2024/01/02 01:16:42;;;;;;;11.45;10.10;;;;;;;-0.16;100.00;96043.22;5036117;28;20025;-72
2024/01/02 01:19:07;;;;;;;11.90;10.60;;;;;;;-0.15;100.00;96039.72;5048510;28;20028;-72
2024/01/02 01:21:33;;;;;;;10.63;8.95;;;;;;;-0.14;100.00;96040.56;5047027;28;20103;-72
2024/01/02 01:23:58;;;;;;;11.98;8.45;;;;;;;-0.11;100.00;96029.25;5046047;28;20035;-72
2024/01/02 01:26:24;;;;;;;11.18;8.70;;;;;;;-0.08;100.00;96035.13;5045400;28;20434;-72
2024/01/02 01:28:49;;;;;;;11.68;10.25;;;;;;;-0.07;100.00;96041.13;5045990;28;20098;-72
2024/01/02 01:31:14;;;;;;;11.07;9.93;;;;;;;-0.05;100.00;96023.78;5044671;28;20052;-72
2024/01/02 01:33:40;;;;;;;11.52;10.32;;;;;;;-0.04;100.00;96025.47;5045015;28;20036;-72
2024/01/02 01:36:06;;;;;;;16.05;10.63;;;;;;;-0.04;100.00;96020.28;5050144;28;20438;-72
2024/01/02 01:38:31;;;;;;;17.33;11.95;;;;;;;-0.05;100.00;96006.53;5045395;28;20036;-72
2024/01/02 01:40:56;;;;;;;15.52;12.55;;;;;;;-0.02;100.00;95997.75;5043285;28;20482;-72
2024/01/02 01:43:22;;;;;;;14.02;12.45;;;;;;;-0.01;100.00;96000.28;5040632;28;20081;-72
2024/01/02 01:45:47;;;;;;;14.10;11.13;;;;;;;-0.02;100.00;96000.34;5048221;28;21720;-72
2024/01/02 01:48:13;;;;;;;12.13;10.25;;;;;;;-0.02;100.00;96006.38;5044819;28;20041;-72
2024/01/02 01:50:39;;;;;;;13.77;10.93;;;;;;;-0.01;100.00;96004.59;5046158;28;20029;-72
2024/01/02 01:53:06;;;;;;;13.15;10.50;;;;;;;0.04;100.00;96001.81;5047863;28;20021;-72
2024/01/02 01:55:32;;;;;;;17.02;12.43;;;;;;;0.11;100.00;96005.81;5052599;28;20040;-72
2024/01/02 01:57:58;;;;;;;14.88;12.13;;;;;;;0.12;100.00;95999.75;5046066;28;20032;-72
2024/01/02 02:00:23;;;;;;;11.25;10.05;;;;;;;0.13;100.00;95999.66;5046749;28;20032;-72
2024/01/02 02:02:49;;;;;;;13.65;10.90;;;;;;;0.18;100.00;95990.81;5049058;28;20028;-72
2024/01/02 02:05:17;;;;;;;14.13;12.10;;;;;;;0.19;100.00;95990.78;5055543;28;20168;-72
2024/01/02 02:07:43;;;;;;;14.00;10.55;;;;;;;0.18;100.00;95989.09;5047646;28;20059;-72
2024/01/02 02:10:08;;;;;;;17.48;11.43;;;;;;;0.21;100.00;95991.53;5052625;28;20024;-72
2024/01/02 02:12:35;;;;;;;12.50;10.10;;;;;;;0.24;100.00;95991.38;5043443;28;20029;-72
2024/01/02 02:15:00;;;;;;;11.43;9.98;;;;;;;0.28;100.00;95990.34;5049927;28;20033;-72
2024/01/02 02:17:30;;;;;;;14.05;10.52;;;;;;;0.26;100.00;95997.34;5048632;28;20029;-72
2024/01/02 02:19:58;;;;;;;14.07;11.50;;;;;;;0.24;100.00;95991.38;5044141;28;20052;-72
2024/01/02 02:22:38;;;;;;;13.20;10.40;;;;;;;0.23;100.00;95994.88;5048397;28;20025;-72
2024/01/02 02:25:05;;;;;;;10.43;8.85;;;;;;;0.19;100.00;95992.50;5047770;28;20032;-72
2024/01/02 02:27:32;;;;;;;12.95;9.15;;;;;;;0.19;100.00;95984.75;5047234;28;20024;-72
2024/01/02 02:29:59;;;;;;;8.82;7.93;;;;;;;0.22;100.00;95974.22;5045558;28;20056;-72
2024/01/02 02:32:24;;;;;;;14.65;9.80;;;;;;;0.25;100.00;95982.72;5046994;28;20025;-72
2024/01/02 02:34:49;;;;;;;11.07;7.90;;;;;;;0.25;100.00;95980.13;5042748;28;20470;-73
2024/01/02 02:37:15;;;;;;;8.95;7.80;;;;;;;0.30;100.00;95976.47;5047513;28;20573;-73
2024/01/02 02:39:40;;;;;;;8.70;7.60;;;;;;;0.32;100.00;95978.09;5052603;28;20052;-72
2024/01/02 02:42:06;;;;;;;10.90;8.40;;;;;;;0.32;100.00;95978.09;5052845;28;20025;-73
2024/01/02 02:44:34;;;;;;;9.27;7.38;;;;;;;0.31;100.00;95975.56;5043086;28;20033;-73
2024/01/02 02:46:59;;;;;;;9.73;6.70;;;;;;;0.30;100.00;95960.94;5047910;28;20048;-73
2024/01/02 02:49:25;;;;;;;9.93;7.18;;;;;;;0.30;100.00;95966.97;5047027;28;20074;-73
2024/01/02 02:51:51;;;;;;;10.35;7.00;;;;;;;0.26;100.00;95966.25;5049490;28;20040;-73
2024/01/02 02:54:16;;;;;;;8.18;7.38;;;;;;;0.23;100.00;95968.16;5048870;28;20501;-73
2024/01/02 02:56:43;;;;;;;9.30;7.70;;;;;;;0.27;100.00;95964.53;5043683;28;20037;-73
2024/01/02 02:59:09;;;;;;;9.70;8.40;;;;;;;0.26;100.00;95950.72;5052399;28;20109;-72
2024/01/02 03:01:35;;;;;;;7.93;7.13;;;;;;;0.22;100.00;95954.38;5045235;28;20029;-72
2024/01/02 03:04:00;;;;;;;9.18;7.32;;;;;;;0.24;100.00;95967.25;5047312;28;20017;-72
2024/01/02 03:06:26;;;;;;;9.13;7.43;;;;;;;0.23;100.00;95955.22;5048878;28;20103;-72
2024/01/02 03:08:51;;;;;;;28.00;15.55;;;;;;;0.20;100.00;95955.34;5042998;28;20025;-72
2024/01/02 03:11:17;;;;;;;34.63;18.95;;;;;;;0.19;100.00;95958.84;5046035;28;20025;-72
2024/01/02 03:13:42;;;;;;;34.85;19.83;;;;;;;0.12;100.00;95948.78;5050945;28;20124;-72
2024/01/02 03:16:09;;;;;;;23.60;14.40;;;;;;;0.10;100.00;95949.75;5048459;28;20151;-72
2024/01/02 03:18:35;;;;;;;31.05;17.50;;;;;;;0.08;100.00;95931.72;5036856;28;20036;-72
2024/01/02 03:21:00;;;;;;;29.67;18.27;;;;;;;0.12;100.00;95927.25;5049512;28;20017;-72
2024/01/02 03:23:26;;;;;;;42.85;24.27;;;;;;;0.12;100.00;95922.06;5043907;28;20025;-73
2024/01/02 03:25:52;;;;;;;42.10;21.95;;;;;;;0.17;100.00;95917.50;5044604;28;20194;-72
2024/01/02 03:28:17;;;;;;;23.42;16.13;;;;;;;0.11;100.00;95918.63;5049736;28;20029;-72
2024/01/02 03:30:43;;;;;;;17.50;11.70;;;;;;;0.10;100.00;95914.34;5046620;28;20032;-72
2024/01/02 03:33:08;;;;;;;21.73;15.90;;;;;;;0.01;100.00;95925.16;5045519;28;20020;-72
2024/01/02 03:35:33;;;;;;;24.92;15.55;;;;;;;-0.07;100.00;95925.50;5043940;28;20051;-72
2024/01/02 03:37:59;;;;;;;28.38;15.55;;;;;;;-0.10;100.00;95927.38;5048850;28;20022;-72
2024/01/02 03:40:24;;;;;;;16.63;11.10;;;;;;;-0.12;100.00;95924.03;5047313;28;20036;-72
2024/01/02 03:42:50;;;;;;;18.80;12.57;;;;;;;-0.16;100.00;95923.31;5048571;28;20032;-72
2024/01/02 03:45:15;;;;;;;20.33;13.63;;;;;;;-0.08;100.00;95920.38;5050388;28;20647;-72
2024/01/02 03:47:40;;;;;;;19.85;12.95;;;;;;;-0.10;100.00;95915.28;5043612;28;20045;-72
2024/01/02 03:50:07;;;;;;;14.18;9.50;;;;;;;-0.16;100.00;95912.97;5040280;28;20098;-72
2024/01/02 03:52:32;;;;;;;8.90;6.80;;;;;;;-0.11;100.00;95900.69;5051472;28;20178;-72
2024/01/02 03:54:57;;;;;;;19.15;10.48;;;;;;;-0.09;100.00;95910.94;5047510;28;20079;-72
2024/01/02 03:57:23;;;;;;;14.73;9.60;;;;;;;-0.07;100.00;95903.94;5045444;28;20389;-72
2024/01/02 03:59:48;;;;;;;8.15;7.25;;;;;;;-0.07;100.00;95896.19;5045584;28;20044;-72
2024/01/02 04:02:14;;;;;;;8.80;7.50;;;;;;;-0.03;100.00;95877.84;5063804;28;20060;-73
2024/01/02 04:04:39;;;;;;;16.35;11.23;;;;;;;0.00;100.00;95874.28;5047756;28;20589;-72
2024/01/02 04:07:05;;;;;;;10.15;9.07;;;;;;;0.05;100.00;95864.53;5047769;28;20423;-72
2024/01/02 04:09:30;;;;;;;42.85;20.75;;;;;;;0.11;100.00;95850.44;5044977;28;20508;-72
2024/01/02 04:11:55;;;;;;;26.88;15.60;;;;;;;0.19;100.00;95857.84;5042794;28;20066;-72
2024/01/02 04:14:21;;;;;;;21.08;13.80;;;;;;;0.23;100.00;95849.88;5049173;28;20025;-72
2024/01/02 04:16:46;;;;;;;19.88;10.75;;;;;;;0.30;100.00;95846.97;5048149;28;20026;-72
2024/01/02 04:19:12;;;;;;;24.50;13.23;;;;;;;0.34;100.00;95864.88;5047580;28;20417;-72
2024/01/02 04:21:37;;;;;;;15.50;10.82;;;;;;;0.34;100.00;95867.47;5050100;28;20036;-72
2024/01/02 04:24:03;;;;;;;14.45;11.88;;;;;;;0.33;100.00;95870.97;5052638;28;20398;-72
2024/01/02 04:26:28;;;;;;;9.75;7.93;;;;;;;0.35;100.00;95871.75;5047082;28;20021;-72
2024/01/02 04:28:54;;;;;;;10.73;7.28;;;;;;;0.45;100.00;95876.50;5048788;28;20026;-72
2024/01/02 04:31:19;;;;;;;13.98;6.00;;;;;;;0.50;100.00;95875.31;5053374;28;20105;-72
2024/01/02 04:33:44;;;;;;;8.63;7.45;;;;;;;0.55;100.00;95872.50;5051419;28;20027;-72
2024/01/02 04:36:10;;;;;;;9.65;7.60;;;;;;;0.51;100.00;95883.94;5066722;28;20053;-72
2024/01/02 04:38:35;;;;;;;8.02;6.60;;;;;;;0.51;100.00;95871.00;5039937;28;20087;-72
2024/01/02 04:41:02;;;;;;;7.05;6.22;;;;;;;0.51;100.00;95869.22;5045441;28;20092;-72
2024/01/02 04:43:28;;;;;;;8.38;6.07;;;;;;;0.55;100.00;95872.50;5048097;28;20024;-72
2024/01/02 04:45:54;;;;;;;11.52;8.45;;;;;;;0.53;100.00;95875.16;5046429;28;20017;-72
2024/01/02 04:48:20;;;;;;;10.60;8.88;;;;;;;0.52;100.00;95878.69;5039837;28;20200;-72
2024/01/02 04:50:45;;;;;;;10.43;8.02;;;;;;;0.58;100.00;95867.19;5045320;28;20470;-72
2024/01/02 04:53:11;;;;;;;7.72;6.57;;;;;;;0.59;100.00;95868.03;5045176;28;20489;-72
2024/01/02 04:55:36;;;;;;;6.43;5.82;;;;;;;0.62;100.00;95866.09;5041584;28;20029;-72
2024/01/02 04:58:02;;;;;;;8.13;6.03;;;;;;;0.66;100.00;95870.25;5045079;28;20022;-72
2024/01/02 05:00:28;;;;;;;6.03;5.43;;;;;;;0.68;100.00;95863.22;5046292;28;20032;-73
2024/01/02 05:02:53;;;;;;;6.85;5.70;;;;;;;0.73;100.00;95865.56;5048096;28;20020;-73
2024/01/02 05:05:19;;;;;;;6.07;5.40;;;;;;;0.75;100.00;95868.91;5049500;28;20142;-72
2024/01/02 05:07:44;;;;;;;6.70;5.47;;;;;;;0.80;100.00;95871.28;5044531;28;20025;-73
2024/01/02 05:10:10;;;;;;;5.00;4.55;;;;;;;0.77;100.00;95872.25;5049626;28;20061;-73
2024/01/02 05:12:35;;;;;;;6.68;4.57;;;;;;;0.76;100.00;95868.00;5040093;28;20513;-73
2024/01/02 05:15:00;;;;;;;6.35;4.90;;;;;;;0.83;100.00;95881.50;5046876;28;20029;-73
2024/01/02 05:17:26;;;;;;;5.63;4.78;;;;;;;0.80;100.00;95881.66;5050415;28;20025;-73
2024/01/02 05:19:51;;;;;;;7.47;5.13;;;;;;;0.83;100.00;95886.69;5048513;28;20098;-73
2024/01/02 05:22:17;;;;;;;8.07;5.80;;;;;;;0.87;100.00;95897.75;5048482;28;20052;-72
2024/01/02 05:24:43;;;;;;;14.57;9.10;;;;;;;1.04;100.00;95904.66;5040111;28;20811;-72
2024/01/02 05:27:08;;;;;;;10.45;9.35;;;;;;;0.97;100.00;95909.31;5042190;28;20021;-73
2024/01/02 05:29:36;;;;;;;12.95;10.27;;;;;;;0.91;100.00;95915.66;5063905;28;20025;-73
2024/01/02 05:32:02;;;;;;;13.30;9.93;;;;;;;0.87;100.00;95924.47;5041689;28;20029;-72
2024/01/02 05:34:29;;;;;;;10.43;9.20;;;;;;;0.89;100.00;95924.44;5050078;28;20021;-73
2024/01/02 05:36:54;;;;;;;10.35;9.25;;;;;;;0.94;100.00;95923.28;5046274;28;20021;-73
2024/01/02 05:39:20;;;;;;;11.70;9.00;;;;;;;1.00;100.00;95924.75;5052397;28;20029;-73
2024/01/02 05:41:45;;;;;;;11.15;9.60;;;;;;;1.02;100.00;95924.63;5041759;28;20550;-73
2024/01/02 05:44:11;;;;;;;11.13;9.95;;;;;;;1.04;100.00;95920.22;5041314;28;20025;-72
2024/01/02 05:46:36;;;;;;;11.90;10.25;;;;;;;1.08;100.00;95927.78;5048140;28;20026;-71
2024/01/02 05:49:01;;;;;;;12.68;11.13;;;;;;;1.11;100.00;95932.78;5071182;28;20036;-72
2024/01/02 05:51:27;;;;;;;16.30;12.35;;;;;;;1.11;100.00;95937.16;5048708;28;20034;-73
2024/01/02 05:53:52;;;;;;;16.02;14.05;;;;;;;1.11;100.00;95931.97;5045509;28;20013;-73
2024/01/02 05:56:18;;;;;;;18.88;12.55;;;;;;;1.18;100.00;95948.03;5044123;28;20017;-72
2024/01/02 05:58:43;;;;;;;14.25;12.85;;;;;;;1.12;100.00;95941.44;5042494;28;20509;-73
2024/01/02 06:01:09;;;;;;;14.38;13.05;;;;;;;1.16;100.00;95932.56;5042697;28;20052;-73
2024/01/02 06:03:34;;;;;;;13.77;12.52;;;;;;;1.17;100.00;95930.81;5041264;28;20013;-73
2024/01/02 06:06:00;;;;;;;14.35;13.10;;;;;;;1.17;100.00;95923.88;5048751;28;20027;-72
2024/01/02 06:08:25;;;;;;;19.00;16.70;;;;;;;1.19;100.00;95929.81;5043991;28;20028;-73
2024/01/02 06:10:50;;;;;;;20.48;17.15;;;;;;;1.21;100.00;95938.34;5045107;28;20029;-73
2024/01/02 06:13:16;;;;;;;25.50;22.80;;;;;;;1.21;100.00;95938.34;5042550;28;20042;-73
2024/01/02 06:15:41;;;;;;;20.40;18.17;;;;;;;1.24;100.00;95945.97;5044019;28;20156;-72
2024/01/02 06:18:06;;;;;;;16.65;15.02;;;;;;;1.23;100.00;95933.94;5048877;28;20030;-73
2024/01/02 06:20:32;;;;;;;12.65;11.35;;;;;;;1.27;100.00;95938.03;5049616;28;20450;-73
2024/01/02 06:22:57;;;;;;;13.82;11.93;;;;;;;1.29;100.00;95930.19;5042047;28;20167;-72
2024/01/02 06:25:23;;;;;;;14.65;13.15;;;;;;;1.29;100.00;95930.19;5043963;28;20025;-72
2024/01/02 06:27:48;;;;;;;16.05;12.40;;;;;;;1.29;100.00;95931.00;5044226;28;20025;-72
2024/01/02 06:30:13;;;;;;;13.13;11.80;;;;;;;1.41;100.00;95924.34;5043405;28;20029;-72
2024/01/02 06:32:39;;;;;;;14.85;12.90;;;;;;;1.36;100.00;95921.16;5042691;28;20016;-73
2024/01/02 06:35:04;;;;;;;13.95;11.90;;;;;;;1.47;100.00;95932.75;5046244;28;20044;-72
2024/01/02 06:37:30;;;;;;;14.82;11.95;;;;;;;1.38;100.00;95932.28;5049346;28;20588;-72
2024/01/02 06:39:56;;;;;;;14.45;12.93;;;;;;;1.37;100.00;95943.59;5048174;28;20028;-72
2024/01/02 06:42:21;;;;;;;16.85;14.25;;;;;;;1.35;100.00;95932.47;5051260;28;20036;-73
2024/01/02 06:44:47;;;;;;;16.92;14.73;;;;;;;1.37;100.00;95930.63;5049952;28;20047;-73
2024/01/02 06:47:13;;;;;;;18.38;14.50;;;;;;;1.36;100.00;95941.91;5055335;28;20041;-71
2024/01/02 06:49:38;;;;;;;18.73;13.35;;;;;;;1.39;100.00;95936.56;5045018;28;20044;-72
2024/01/02 06:52:04;;;;;;;24.05;15.48;;;;;;;1.38;100.00;95932.28;5045531;28;20036;-70
2024/01/02 06:54:29;;;;;;;36.83;25.42;;;;;;;1.42;100.00;95936.41;5052056;28;20035;-70
2024/01/02 06:56:56;;;;;;;22.77;17.98;;;;;;;1.48;100.00;95943.03;5050510;28;20029;-71
2024/01/02 06:59:21;;;;;;;19.52;16.45;;;;;;;1.54;100.00;95941.88;5046819;28;20052;-72
2024/01/02 07:01:47;;;;;;;17.05;13.38;;;;;;;1.56;100.00;95945.22;5048936;28;20114;-72
2024/01/02 07:04:12;;;;;;;8.48;7.63;;;;;;;1.45;100.00;95945.78;5050055;28;20029;-72
2024/01/02 07:06:38;;;;;;;9.30;8.30;;;;;;;1.52;100.00;95939.34;5044981;28;20052;-72
2024/01/02 07:09:04;;;;;;;9.80;8.80;;;;;;;1.49;100.00;95941.28;5050808;28;20151;-71
2024/01/02 07:11:29;;;;;;;9.20;7.75;;;;;;;1.43;100.00;95935.47;5050383;28;20082;-73
2024/01/02 07:13:55;;;;;;;7.00;6.40;;;;;;;1.46;100.00;95937.09;5047654;28;20071;-73
2024/01/02 07:16:20;;;;;;;8.27;6.32;;;;;;;1.48;100.00;95930.06;5055947;28;20040;-71
2024/01/02 07:18:46;;;;;;;6.15;5.50;;;;;;;1.49;100.00;95923.94;5053576;28;20108;-72
2024/01/02 07:21:11;;;;;;;6.30;5.68;;;;;;;1.46;100.00;95928.47;5054851;28;20547;-71
2024/01/02 07:23:36;;;;;;;9.05;5.63;;;;;;;1.46;100.00;95931.06;5048279;28;20473;-72
2024/01/02 07:26:03;;;;;;;6.18;5.57;;;;;;;1.48;100.00;95931.84;5052097;28;20013;-72
2024/01/02 07:28:28;;;;;;;7.15;5.90;;;;;;;1.47;100.00;95935.34;5050677;28;20370;-73
2024/01/02 07:30:53;;;;;;;7.68;6.72;;;;;;;1.49;100.00;95931.72;5049129;28;20028;-73
2024/01/02 07:33:19;;;;;;;9.23;6.68;;;;;;;1.51;100.00;95931.66;5049641;28;20032;-74
2024/01/02 07:35:45;;;;;;;8.20;7.43;;;;;;;1.50;100.00;95937.78;5046937;28;20071;-73
2024/01/02 07:38:10;;;;;;;9.93;7.20;;;;;;;1.51;100.00;95934.25;5050732;28;20024;-73
2024/01/02 07:40:35;;;;;;;8.00;7.20;;;;;;;1.50;100.00;95941.19;5053839;28;20039;-73
2024/01/02 07:43:01;;;;;;;7.30;6.30;;;;;;;1.54;100.00;95952.25;5045456;28;20025;-73
2024/01/02 07:45:28;;;;;;;6.80;6.22;;;;;;;1.55;100.00;95951.34;5049004;28;20025;-73
2024/01/02 07:47:54;;;;;;;17.25;12.13;;;;;;;1.56;100.00;95947.81;5052354;28;20041;-74
2024/01/02 07:50:19;;;;;;;54.10;32.63;;;;;;;1.58;100.00;95956.38;5052734;28;20028;-74
2024/01/02 07:52:47;;;;;;;26.05;18.65;;;;;;;1.58;100.00;95958.97;5047612;28;20025;-72
2024/01/02 07:55:12;;;;;;;11.68;10.10;;;;;;;1.60;100.00;95969.28;5048074;28;20025;-73
2024/01/02 07:57:37;;;;;;;12.15;9.68;;;;;;;1.63;100.00;95975.13;5048781;28;20021;-73
2024/01/02 08:00:04;;;;;;;10.82;9.60;;;;;;;1.67;100.00;95976.66;5054867;28;20032;-73
2024/01/02 08:02:30;;;;;;;15.80;11.85;;;;;;;1.66;100.00;95959.41;5047481;28;20029;-73
2024/01/02 08:04:55;;;;;;;12.48;11.27;;;;;;;1.69;100.00;95954.06;5049671;28;20040;-72
2024/01/02 08:07:20;;;;;;;11.18;10.07;;;;;;;1.74;100.00;95945.19;5042975;28;20030;-73
2024/01/02 08:09:46;;;;;;;14.80;13.00;;;;;;;1.75;100.00;95944.28;5050139;28;20037;-72
2024/01/02 08:12:12;;;;;;;17.70;14.57;;;;;;;1.75;100.00;95928.69;5044185;28;20032;-73
2024/01/02 08:14:37;;;;;;;13.63;12.23;;;;;;;1.75;100.00;95933.88;5043884;28;20044;-73
2024/01/02 08:17:03;;;;;;;21.35;18.80;;;;;;;1.78;100.00;95939.75;5046620;28;20033;-73
2024/01/02 08:19:28;;;;;;;25.80;20.00;;;;;;;1.79;100.00;95936.25;5043404;28;20037;-73
2024/01/02 08:21:53;;;;;;;19.08;17.02;;;;;;;1.80;100.00;95937.06;5045819;28;20030;-72
2024/01/02 08:24:19;;;;;;;29.13;25.27;;;;;;;1.81;100.00;95936.16;5054016;28;20432;-73
2024/01/02 08:26:44;;;;;;;37.33;33.40;;;;;;;1.82;100.00;95922.25;5044624;28;20128;-73
2024/01/02 08:29:09;;;;;;;33.30;29.67;;;;;;;1.83;100.00;95918.72;5050933;28;20028;-74
2024/01/02 08:31:35;;;;;;;30.75;26.38;;;;;;;1.90;100.00;95907.09;5046579;28;20025;-73
2024/01/02 08:34:00;;;;;;;34.65;30.17;;;;;;;1.97;100.00;95905.84;5046421;28;20033;-74
2024/01/02 08:36:26;;;;;;;64.05;51.72;;;;;;;2.02;100.00;95905.59;5044306;28;20036;-73
2024/01/02 08:38:51;;;;;;;77.80;66.00;;;;;;;2.12;100.00;95900.72;5042252;28;20032;-74
2024/01/02 08:41:17;;;;;;;91.70;71.25;;;;;;;2.20;100.00;95902.88;5042411;28;20032;-73
2024/01/02 08:43:42;;;;;;;82.15;62.17;;;;;;;2.23;100.00;95895.75;5046751;28;20033;-73
2024/01/02 08:46:07;;;;;;;44.42;35.28;;;;;;;2.38;100.00;95909.66;5043930;28;20025;-73
2024/01/02 08:48:34;;;;;;;17.35;15.55;;;;;;;2.49;100.00;95918.63;5042533;28;20053;-73
2024/01/02 08:50:59;;;;;;;14.63;12.80;;;;;;;2.54;100.00;95908.78;5053516;28;20111;-73
2024/01/02 08:53:25;;;;;;;11.75;10.55;;;;;;;2.59;100.00;95888.56;5045372;28;20060;-73
2024/01/02 08:55:50;;;;;;;19.38;13.90;;;;;;;2.65;100.00;95882.19;5051057;28;20037;-73
2024/01/02 08:58:15;;;;;;;13.13;11.65;;;;;;;2.66;100.00;95881.25;5048720;28;20564;-73
2024/01/02 09:00:41;;;;;;;13.77;9.93;;;;;;;2.66;100.00;95876.91;5044720;28;20029;-73
2024/01/02 09:03:08;;;;;;;9.75;8.10;;;;;;;2.67;100.00;95885.53;5053185;28;20060;-73
2024/01/02 09:05:33;;;;;;;9.98;9.02;;;;;;;2.61;100.00;95898.88;5047248;28;20063;-73
2024/01/02 09:08:00;;;;;;;9.18;8.27;;;;;;;2.54;100.00;95908.78;5046229;28;20484;-73
2024/01/02 09:10:25;;;;;;;9.13;8.32;;;;;;;2.62;100.00;95913.56;5044531;28;20025;-73
2024/01/02 09:12:50;;;;;;;8.20;7.50;;;;;;;2.67;100.00;95908.94;5046113;28;20418;-73
2024/01/02 09:15:16;;;;;;;9.25;8.00;;;;;;;2.71;100.00;95898.28;5053915;28;20044;-73
2024/01/02 09:17:41;;;;;;;9.98;6.47;;;;;;;2.65;100.00;95905.59;5049957;28;20044;-74
2024/01/02 09:20:08;;;;;;;8.73;6.53;;;;;;;2.73;100.00;95916.38;5046655;28;20025;-74
2024/01/02 09:22:33;;;;;;;10.43;9.05;;;;;;;2.65;100.00;95932.44;5053067;28;20100;-73
2024/01/02 09:24:59;;;;;;;16.23;14.65;;;;;;;2.55;100.00;95936.47;5046796;28;20112;-72
2024/01/02 09:27:28;;;;;;;24.48;15.38;;;;;;;2.52;100.00;95936.63;5051763;28;20024;-72
2024/01/02 09:29:54;;;;;;;13.02;10.82;;;;;;;2.65;100.00;95944.59;5049683;28;20025;-73
2024/01/02 09:32:19;;;;;;;18.30;12.50;;;;;;;2.77;100.00;95941.28;5046813;28;20032;-73
2024/01/02 09:34:45;;;;;;;10.10;9.20;;;;;;;2.74;100.00;95945.81;5039887;28;20055;-73
2024/01/02 09:37:10;;;;;;;7.35;6.65;;;;;;;2.70;100.00;95950.34;5043292;28;20104;-73
2024/01/02 09:39:37;;;;;;;7.18;6.57;;;;;;;2.75;100.00;95957.91;5042949;28;20057;-72
2024/01/02 09:42:17;;;;;;;7.05;6.35;;;;;;;2.79;100.00;95965.44;5059132;28;20040;-75
2024/01/02 09:45:18;;;;;;;7.97;7.18;;;;;;;2.69;100.00;95966.88;5044594;28;20037;-72
2024/01/02 09:48:23;;;;;;;8.63;7.40;;;;;;;2.75;100.00;95968.31;5023787;28;20121;-74
2024/01/02 09:50:48;;;;;;;7.88;7.25;;;;;;;2.79;100.00;95951.59;5041460;28;20417;-71
2024/01/02 09:53:49;;;;;;;7.95;7.15;;;;;;;2.93;100.00;95946.44;5044213;28;20029;-71
2024/01/02 09:56:43;;;;;;;10.65;9.65;;;;;;;3.02;100.00;95934.69;5049678;28;20096;-71
2024/01/02 09:59:27;;;;;;;8.05;7.38;;;;;;;3.04;100.00;95937.16;5041810;28;20509;-72
2024/01/02 10:01:52;;;;;;;8.23;7.40;;;;;;;2.96;100.00;95932.41;5058863;28;20045;-73
2024/01/02 10:04:32;;;;;;;7.38;6.35;;;;;;;3.00;100.00;95926.13;5051722;28;20036;-71
2024/01/02 10:07:23;;;;;;;11.10;8.07;;;;;;;3.03;100.00;95914.69;5043822;28;20021;-72
2024/01/02 10:10:07;;;;;;;8.55;7.05;;;;;;;2.91;100.00;95924.03;5039914;28;20061;-72
2024/01/02 10:13:02;;;;;;;26.75;19.20;;;;;;;2.86;100.00;95911.28;5048982;28;20040;-72
2024/01/02 10:15:38;;;;;;;26.73;17.23;;;;;;;2.87;100.00;95907.78;5047690;28;20059;-74
2024/01/02 10:18:38;;;;;;;126.60;77.53;;;;;;;2.90;100.00;95914.56;5050317;28;20485;-74
2024/01/02 10:21:42;;;;;;;57.45;35.88;;;;;;;2.94;100.00;95926.47;5047120;28;20029;-75
2024/01/02 10:24:30;;;;;;;35.38;26.73;;;;;;;2.87;100.00;95931.16;5037574;28;20486;-75
2024/01/02 10:27:14;;;;;;;22.67;17.77;;;;;;;2.91;100.00;95924.91;5046756;28;20041;-75
2024/01/02 10:30:03;;;;;;;19.35;13.23;;;;;;;2.92;100.00;95918.75;5048394;28;20111;-74
2024/01/02 10:32:34;;;;;;;17.75;16.02;;;;;;;3.10;100.00;95927.25;5047182;28;20021;-74
2024/01/02 10:35:14;;;;;;;16.33;14.13;;;;;;;2.91;100.00;95929.25;5041214;28;20021;-75
2024/01/02 10:37:52;;;;;;;28.65;17.70;;;;;;;2.97;100.00;95928.88;5049591;28;20040;-75
2024/01/02 10:40:23;;;;;;;25.30;17.40;;;;;;;2.88;100.00;95932.88;5052243;28;20478;-76
2024/01/02 10:43:07;;;;;;;17.67;12.23;;;;;;;3.04;100.00;95932.81;5042359;28;20478;-75
2024/01/02 10:48:22;;;;;;;14.48;13.18;;;;;;;3.14;100.00;95920.94;5042791;28;20053;-73
2024/01/02 10:51:05;;;;;;;11.02;9.93;;;;;;;3.24;100.00;95926.44;5048298;28;20033;-73
2024/01/02 10:54:09;;;;;;;11.55;8.75;;;;;;;3.27;100.00;95926.25;5050933;28;20549;-73
2024/01/02 10:56:45;;;;;;;19.40;14.73;;;;;;;3.19;100.00;95925.03;5049791;28;20875;-70
2024/01/02 10:59:35;;;;;;;16.83;13.90;;;;;;;3.14;100.00;95926.13;5049150;28;20059;-74
2024/01/02 11:02:13;;;;;;;27.10;23.55;;;;;;;3.07;100.00;95926.59;5041853;28;20048;-74
2024/01/02 11:05:06;;;;;;;8.70;7.80;;;;;;;3.08;100.00;95917.84;5045587;28;20060;-74
2024/01/02 11:07:35;;;;;;;12.07;9.60;;;;;;;2.97;100.00;95916.72;5043480;28;20045;-74
2024/01/02 11:10:08;;;;;;;8.98;7.57;;;;;;;3.03;100.00;95920.75;5047522;28;20572;-74
2024/01/02 11:13:01;;;;;;;10.65;9.07;;;;;;;2.98;100.00;95907.16;5048661;28;20029;-76
2024/01/02 11:15:31;;;;;;;14.55;10.30;;;;;;;2.98;100.00;95897.59;5050678;28;20462;-74
2024/01/02 11:17:59;;;;;;;23.75;16.58;;;;;;;2.98;100.00;95894.13;5049541;28;20031;-74
2024/01/02 11:20:36;;;;;;;17.52;14.95;;;;;;;3.00;100.00;95892.31;5046580;28;20043;-73
2024/01/02 11:23:11;;;;;;;16.58;13.95;;;;;;;3.07;100.00;95901.41;5048907;28;20417;-74
2024/01/02 11:25:44;;;;;;;9.57;8.05;;;;;;;3.23;100.00;95895.31;5047371;28;20063;-74
2024/01/02 11:28:11;;;;;;;8.73;7.93;;;;;;;3.36;100.00;95870.19;5048136;28;20033;-74